Time;durP1;ratioP1;P1;durP2;ratioP2;P2;SDS_P1;SDS_P2;PMS_P1;PMS_P2;Temp;Humidity;BMP_temperature;BMP_pressure;BME280_temperature;BME280_humidity;BME280_pressure;Samples;Min_cycle;Max_cycle;Signal;HPM_P1;HPM_P2
2023/09/04 00:00:28;;;;;;;2.13;1.92;;;17.70;99.90;;;;;;5087370;28;20036;-35
2023/09/04 00:02:53;;;;;;;2.38;2.17;;;17.70;99.90;;;;;;5087539;28;20047;-36
2023/09/04 00:05:19;;;;;;;2.63;2.10;;;17.70;99.90;;;;;;5085865;28;20030;-36
2023/09/04 00:07:45;;;;;;;2.20;2.00;;;17.70;99.90;;;;;;5086958;28;20076;-35
2023/09/04 00:10:13;;;;;;;2.10;1.90;;;17.70;99.90;;;;;;5086519;28;20460;-35
2023/09/04 00:12:39;;;;;;;2.05;1.90;;;17.70;99.90;;;;;;5086231;28;20036;-35
2023/09/04 00:15:05;;;;;;;1.77;1.67;;;17.70;99.90;;;;;;5086087;28;20050;-34
2023/09/04 00:17:31;;;;;;;1.88;1.77;;;17.70;99.90;;;;;;5086039;28;20024;-35
2023/09/04 00:19:57;;;;;;;1.90;1.80;;;17.70;99.90;;;;;;5074815;28;20134;-35
2023/09/04 00:22:22;;;;;;;2.20;2.00;;;17.60;99.90;;;;;;5086333;28;20102;-35
2023/09/04 00:24:48;;;;;;;2.70;1.77;;;17.60;99.90;;;;;;5086050;28;20059;-34
2023/09/04 00:27:14;;;;;;;2.20;2.00;;;17.60;99.90;;;;;;5085793;28;20061;-35
2023/09/04 00:29:40;;;;;;;2.00;1.90;;;17.50;99.90;;;;;;5085913;28;20031;-36
2023/09/04 00:32:06;;;;;;;2.10;2.00;;;17.50;99.90;;;;;;5085826;28;20729;-34
2023/09/04 00:34:34;;;;;;;2.03;1.83;;;17.50;99.90;;;;;;5086079;28;20031;-36
2023/09/04 00:39:54;;;;;;;1.77;1.67;;;17.40;99.90;;;;;;5082712;28;20040;-35
2023/09/04 00:42:20;;;;;;;1.95;1.83;;;17.50;99.90;;;;;;5085367;28;20027;-35
2023/09/04 00:44:49;;;;;;;2.17;1.98;;;17.40;99.90;;;;;;5085844;28;20024;-35
2023/09/04 00:47:17;;;;;;;2.17;1.98;;;17.40;99.90;;;;;;5085109;28;20542;-35
2023/09/04 00:49:45;;;;;;;2.10;1.90;;;17.40;99.90;;;;;;5086214;28;20395;-35
2023/09/04 00:52:11;;;;;;;3.90;2.47;;;17.40;99.90;;;;;;5085662;28;20035;-37
2023/09/04 00:54:37;;;;;;;2.42;2.10;;;17.40;99.90;;;;;;5084557;28;20028;-36
2023/09/04 00:57:05;;;;;;;2.70;2.35;;;17.40;99.90;;;;;;5085974;28;20086;-35
2023/09/04 00:59:31;;;;;;;2.30;2.10;;;17.40;99.90;;;;;;5086040;28;20031;-35
2023/09/04 01:02:00;;;;;;;2.70;2.50;;;17.40;99.90;;;;;;5085567;28;20023;-35
2023/09/04 01:04:26;;;;;;;2.10;2.00;;;17.40;99.90;;;;;;5085710;28;20036;-39
2023/09/04 01:06:53;;;;;;;2.45;2.25;;;17.40;99.90;;;;;;5085739;28;20034;-36
2023/09/04 01:09:20;;;;;;;2.60;2.30;;;17.40;99.90;;;;;;5084359;28;20024;-34
2023/09/04 01:12:07;;;;;;;2.95;2.60;;;17.40;99.90;;;;;;5085699;28;20083;-34
2023/09/04 01:14:34;;;;;;;2.40;2.20;;;17.40;99.90;;;;;;5085692;28;20142;-35
2023/09/04 01:17:03;;;;;;;2.40;2.20;;;17.30;99.90;;;;;;5084807;28;20016;-35
2023/09/04 01:19:29;;;;;;;3.40;2.10;;;17.30;99.90;;;;;;5085478;28;20036;-34
2023/09/04 01:21:55;;;;;;;2.28;2.08;;;17.30;99.90;;;;;;5085536;28;20031;-34
2023/09/04 01:24:21;;;;;;;2.40;2.20;;;17.30;99.90;;;;;;5084141;28;20481;-35
2023/09/04 01:26:58;;;;;;;2.53;2.33;;;17.30;99.90;;;;;;5084933;28;20455;-35
2023/09/04 01:29:38;;;;;;;2.65;2.35;;;17.30;99.90;;;;;;5084330;28;20071;-34
2023/09/04 01:32:12;;;;;;;2.92;2.50;;;17.30;99.90;;;;;;5082685;28;20506;-35
2023/09/04 01:34:53;;;;;;;2.63;2.42;;;17.20;99.90;;;;;;5085301;28;20028;-35
2023/09/04 01:37:19;;;;;;;2.65;2.08;;;17.20;99.90;;;;;;5082915;28;20024;-36
2023/09/04 01:39:46;;;;;;;2.30;1.90;;;17.20;99.90;;;;;;5086196;28;20113;-37
2023/09/04 01:42:11;;;;;;;2.60;2.40;;;17.20;99.90;;;;;;5084686;28;20027;-35
2023/09/04 01:44:37;;;;;;;2.33;2.13;;;17.20;99.90;;;;;;5084338;28;20024;-34
2023/09/04 01:47:03;;;;;;;2.88;2.60;;;17.10;99.90;;;;;;5084671;28;20024;-36
2023/09/04 01:49:28;;;;;;;2.88;2.58;;;17.10;99.90;;;;;;5085131;28;20020;-35
2023/09/04 01:51:58;;;;;;;2.65;2.45;;;17.10;99.90;;;;;;5084573;28;20453;-35
2023/09/04 01:54:23;;;;;;;3.63;2.53;;;17.10;99.90;;;;;;5064912;28;20518;-35
2023/09/04 01:56:49;;;;;;;2.60;2.40;;;17.10;99.90;;;;;;5079001;28;20132;-36
2023/09/04 01:59:15;;;;;;;3.35;2.55;;;17.10;99.90;;;;;;5084153;28;20417;-36
2023/09/04 02:01:40;;;;;;;3.05;2.63;;;17.00;99.90;;;;;;5084674;28;20123;-36
2023/09/04 02:04:06;;;;;;;2.80;2.60;;;17.00;99.90;;;;;;5085150;28;20545;-36
2023/09/04 02:06:31;;;;;;;2.80;2.60;;;17.00;99.90;;;;;;5083958;28;20487;-36
2023/09/04 02:08:57;;;;;;;3.08;2.85;;;17.00;99.90;;;;;;5084748;28;20075;-36
2023/09/04 02:11:23;;;;;;;2.85;2.65;;;17.00;99.90;;;;;;5084376;28;20024;-34
2023/09/04 02:13:49;;;;;;;2.78;2.45;;;17.00;99.90;;;;;;5085106;28;20036;-35
2023/09/04 02:16:15;;;;;;;5.57;3.03;;;16.90;99.90;;;;;;5084309;28;20023;-35
2023/09/04 02:18:41;;;;;;;2.90;2.60;;;16.90;99.90;;;;;;5084404;28;20024;-37
2023/09/04 02:21:07;;;;;;;3.08;2.83;;;16.90;99.90;;;;;;5083660;28;20799;-36
2023/09/04 02:23:35;;;;;;;3.35;3.00;;;16.90;99.90;;;;;;5084332;28;20028;-35
2023/09/04 02:26:02;;;;;;;3.08;2.88;;;16.90;99.90;;;;;;5083833;28;20099;-36
2023/09/04 02:28:29;;;;;;;2.92;2.65;;;16.80;99.90;;;;;;5083999;28;20664;-34
2023/09/04 02:30:54;;;;;;;2.97;2.75;;;16.80;99.90;;;;;;5084035;28;20786;-36
2023/09/04 02:33:20;;;;;;;3.42;2.90;;;16.80;99.90;;;;;;5083342;28;20035;-35
2023/09/04 02:35:46;;;;;;;2.60;2.40;;;16.80;99.90;;;;;;5084771;28;20111;-37
2023/09/04 02:38:11;;;;;;;2.95;2.75;;;16.80;99.90;;;;;;5084185;28;20012;-36
2023/09/04 02:40:37;;;;;;;3.10;2.80;;;16.80;99.90;;;;;;5084575;28;20012;-35
2023/09/04 02:43:02;;;;;;;3.45;2.70;;;16.80;99.90;;;;;;5083598;28;20084;-35
2023/09/04 02:45:28;;;;;;;2.60;2.40;;;16.80;99.90;;;;;;5084240;28;20020;-34
2023/09/04 02:47:54;;;;;;;3.05;2.75;;;16.70;99.90;;;;;;5084079;28;20455;-34
2023/09/04 02:50:19;;;;;;;2.97;2.78;;;16.70;99.90;;;;;;5083945;28;20028;-34
2023/09/04 02:52:45;;;;;;;3.20;2.90;;;16.70;99.90;;;;;;5084502;28;20040;-35
2023/09/04 02:55:12;;;;;;;3.83;3.10;;;16.70;99.90;;;;;;5083957;28;20023;-36
2023/09/04 02:57:38;;;;;;;3.95;3.55;;;16.70;99.90;;;;;;5084746;28;20028;-34
2023/09/04 03:00:06;;;;;;;3.80;3.50;;;16.70;99.90;;;;;;5083701;28;20043;-35
2023/09/04 03:02:33;;;;;;;3.13;2.83;;;16.70;99.90;;;;;;5083818;28;20433;-35
2023/09/04 03:04:58;;;;;;;3.05;2.85;;;16.70;99.90;;;;;;5084208;28;20100;-36
2023/09/04 03:07:33;;;;;;;6.63;3.88;;;16.70;99.90;;;;;;5084593;28;20037;-36
2023/09/04 03:09:59;;;;;;;4.60;3.78;;;16.70;99.90;;;;;;5083063;28;20032;-33
2023/09/04 03:12:30;;;;;;;3.85;3.47;;;16.60;99.90;;;;;;5084299;28;20036;-36
2023/09/04 03:14:56;;;;;;;3.97;3.58;;;16.60;99.90;;;;;;5083633;28;20016;-36
2023/09/04 03:17:22;;;;;;;3.85;3.55;;;16.60;99.90;;;;;;5084972;28;20085;-37
2023/09/04 03:19:53;;;;;;;4.93;3.95;;;16.60;99.90;;;;;;5087775;28;20103;-35
2023/09/04 03:22:19;;;;;;;3.97;3.58;;;16.60;99.90;;;;;;5086712;28;20059;-35
2023/09/04 03:24:45;;;;;;;3.80;3.50;;;16.60;99.90;;;;;;5088777;28;20063;-36
2023/09/04 03:27:10;;;;;;;3.83;3.53;;;16.60;99.90;;;;;;5087805;28;20028;-34
2023/09/04 03:29:39;;;;;;;6.07;3.90;;;16.50;99.90;;;;;;5087374;28;20383;-34
2023/09/04 03:32:05;;;;;;;4.20;3.80;;;16.50;99.90;;;;;;5086915;28;20375;-34
2023/09/04 03:34:31;;;;;;;3.67;3.38;;;16.50;99.90;;;;;;5087525;28;20107;-34
2023/09/04 03:36:57;;;;;;;4.15;3.80;;;16.50;99.90;;;;;;5086595;28;20479;-36
2023/09/04 03:39:23;;;;;;;3.78;3.42;;;16.50;99.90;;;;;;5086870;28;20058;-36
2023/09/04 03:41:49;;;;;;;4.40;3.95;;;16.50;99.90;;;;;;5088180;28;20023;-35
2023/09/04 03:44:18;;;;;;;4.40;4.00;;;16.50;99.90;;;;;;5085946;28;20017;-35
2023/09/04 03:46:43;;;;;;;3.80;3.50;;;16.40;99.90;;;;;;5087246;28;20031;-34
2023/09/04 03:49:09;;;;;;;4.55;4.13;;;16.40;99.90;;;;;;5087009;28;20089;-35
2023/09/04 03:51:34;;;;;;;5.97;3.60;;;16.40;99.90;;;;;;5086819;28;20035;-35
2023/09/04 03:54:02;;;;;;;3.63;3.33;;;16.30;99.90;;;;;;5086793;28;20509;-35
2023/09/04 03:56:31;;;;;;;4.18;3.78;;;16.30;99.90;;;;;;5086392;28;20050;-36
2023/09/04 03:59:00;;;;;;;4.35;3.95;;;16.30;99.90;;;;;;5086674;28;20020;-35
2023/09/04 04:01:27;;;;;;;4.03;3.67;;;16.30;99.90;;;;;;5087106;28;20040;-36
2023/09/04 04:03:53;;;;;;;4.53;4.07;;;16.30;99.90;;;;;;5086740;28;20153;-36
2023/09/04 04:06:25;;;;;;;3.97;3.65;;;16.30;99.90;;;;;;5086540;28;20144;-36
2023/09/04 04:08:54;;;;;;;4.28;3.88;;;16.30;99.90;;;;;;5087479;28;20028;-36
2023/09/04 04:11:20;;;;;;;5.65;4.20;;;16.30;99.90;;;;;;5085576;28;20094;-36
2023/09/04 04:13:46;;;;;;;4.97;3.90;;;16.30;99.90;;;;;;5086746;28;20548;-35
2023/09/04 04:16:12;;;;;;;4.03;3.63;;;16.30;99.90;;;;;;5085246;28;20020;-36
2023/09/04 04:18:40;;;;;;;4.30;3.90;;;16.20;99.90;;;;;;5086396;28;20395;-35
2023/09/04 04:21:06;;;;;;;4.35;3.95;;;16.20;99.90;;;;;;5085622;28;20028;-35
2023/09/04 04:23:33;;;;;;;4.40;4.00;;;16.20;99.90;;;;;;5087135;28;20024;-36
2023/09/04 04:26:01;;;;;;;4.32;3.95;;;16.20;99.90;;;;;;5085734;28;20520;-36
2023/09/04 04:28:27;;;;;;;4.78;4.20;;;16.20;99.90;;;;;;5086943;28;20141;-36
2023/09/04 04:30:52;;;;;;;6.32;4.80;;;16.20;99.90;;;;;;5085977;28;20024;-35
2023/09/04 04:33:18;;;;;;;5.28;4.78;;;16.20;99.90;;;;;;5085285;28;20120;-36
2023/09/04 04:35:44;;;;;;;4.78;4.28;;;16.20;99.90;;;;;;5086496;28;20470;-36
2023/09/04 04:38:10;;;;;;;4.32;3.92;;;16.20;99.90;;;;;;5085918;28;20032;-35
2023/09/04 04:40:38;;;;;;;5.13;4.32;;;16.20;99.90;;;;;;5085898;28;20021;-35
2023/09/04 04:43:04;;;;;;;5.13;4.63;;;16.10;99.90;;;;;;5085677;28;20473;-35
2023/09/04 04:45:30;;;;;;;4.63;4.22;;;16.10;99.90;;;;;;5087031;28;20032;-35
2023/09/04 04:47:56;;;;;;;4.93;4.38;;;16.10;99.90;;;;;;5086374;28;20020;-34
2023/09/04 04:50:22;;;;;;;5.45;4.80;;;16.10;99.90;;;;;;5086474;28;20036;-35
2023/09/04 04:52:47;;;;;;;6.07;4.85;;;16.20;99.90;;;;;;5086381;28;20039;-35
2023/09/04 04:55:13;;;;;;;5.25;4.75;;;16.10;99.90;;;;;;5085838;28;20021;-35
2023/09/04 04:57:39;;;;;;;5.50;4.95;;;16.10;99.90;;;;;;5085702;28;20478;-36
2023/09/04 05:00:06;;;;;;;5.20;4.70;;;16.10;99.90;;;;;;5084961;28;20064;-36
2023/09/04 05:02:36;;;;;;;5.32;4.70;;;16.10;99.90;;;;;;5086503;28;20566;-36
2023/09/04 05:05:03;;;;;;;4.95;4.50;;;16.10;99.90;;;;;;5086321;28;20028;-37
2023/09/04 05:07:32;;;;;;;5.90;4.53;;;16.10;99.90;;;;;;5085196;28;20024;-35
2023/09/04 05:10:03;;;;;;;5.40;4.70;;;16.10;99.90;;;;;;5085383;28;20058;-35
2023/09/04 05:12:29;;;;;;;5.03;4.57;;;16.10;99.90;;;;;;5086116;28;20054;-36
2023/09/04 05:14:55;;;;;;;4.82;4.20;;;16.10;99.90;;;;;;5085180;28;20016;-35
2023/09/04 05:17:20;;;;;;;4.90;4.40;;;16.10;99.90;;;;;;5085557;28;20024;-36
2023/09/04 05:19:46;;;;;;;4.55;4.15;;;16.10;99.90;;;;;;5086118;28;20489;-35
2023/09/04 05:22:11;;;;;;;4.25;3.85;;;16.10;99.90;;;;;;5084361;28;20034;-35
2023/09/04 05:24:37;;;;;;;4.97;4.55;;;16.10;99.90;;;;;;5085577;28;20019;-36
2023/09/04 05:27:03;;;;;;;5.22;4.00;;;16.10;99.90;;;;;;5085403;28;20063;-35
2023/09/04 05:29:35;;;;;;;4.88;3.78;;;16.10;99.90;;;;;;5084412;28;20608;-36
2023/09/04 05:32:01;;;;;;;4.70;4.20;;;16.10;99.90;;;;;;5085147;28;20036;-35
2023/09/04 05:34:26;;;;;;;4.28;3.88;;;16.20;99.90;;;;;;5085356;28;20612;-35
2023/09/04 05:36:53;;;;;;;4.70;4.28;;;16.20;99.90;;;;;;5084641;28;20463;-35
2023/09/04 05:39:19;;;;;;;5.03;4.53;;;16.20;99.90;;;;;;5084267;28;20035;-36
2023/09/04 05:41:45;;;;;;;4.25;3.85;;;16.20;99.90;;;;;;5085030;28;20024;-35
2023/09/04 05:44:13;;;;;;;4.40;4.00;;;16.20;99.90;;;;;;5083843;28;20027;-35
2023/09/04 05:46:39;;;;;;;4.50;4.10;;;16.20;99.90;;;;;;5084648;28;20024;-35
2023/09/04 05:49:04;;;;;;;5.10;4.63;;;16.30;99.90;;;;;;5084380;28;20026;-35
2023/09/04 05:51:30;;;;;;;5.22;4.68;;;16.30;99.90;;;;;;5084825;28;20534;-35
2023/09/04 05:53:55;;;;;;;4.57;4.18;;;16.30;99.90;;;;;;5084847;28;20035;-36
2023/09/04 05:56:21;;;;;;;4.40;4.00;;;16.30;99.90;;;;;;5084361;28;20020;-37
2023/09/04 05:58:56;;;;;;;4.70;4.30;;;16.30;99.90;;;;;;5084714;28;20584;-35
2023/09/04 06:01:23;;;;;;;6.10;4.97;;;16.30;99.90;;;;;;5073791;28;20036;-35
2023/09/04 06:03:49;;;;;;;4.88;4.28;;;16.30;99.90;;;;;;5084550;28;20024;-34
2023/09/04 06:06:15;;;;;;;4.93;4.40;;;16.30;99.90;;;;;;5085237;28;20035;-34
2023/09/04 06:08:41;;;;;;;9.00;4.15;;;16.40;99.90;;;;;;5085032;28;20466;-34
2023/09/04 06:11:07;;;;;;;4.55;4.15;;;16.40;99.90;;;;;;5083572;28;20015;-35
2023/09/04 06:13:33;;;;;;;5.65;4.15;;;16.40;99.90;;;;;;5084824;28;20093;-35
2023/09/04 06:15:59;;;;;;;4.15;3.75;;;16.40;99.90;;;;;;5084321;28;20028;-36
2023/09/04 06:18:27;;;;;;;4.85;4.45;;;16.50;99.90;;;;;;5084082;28;20032;-36
2023/09/04 06:20:52;;;;;;;4.75;4.35;;;16.50;99.90;;;;;;5084960;28;20028;-34
2023/09/04 06:23:25;;;;;;;5.50;4.53;;;16.50;99.90;;;;;;5083906;28;20024;-35
2023/09/04 06:25:50;;;;;;;;;;;16.50;99.90;;;;;;5084545;28;20074;-35
2023/09/04 06:28:16;;;;;;;4.28;3.70;;;16.60;99.90;;;;;;5084662;28;20401;-35
2023/09/04 06:30:42;;;;;;;3.78;3.42;;;16.50;99.90;;;;;;5084285;28;20115;-35
2023/09/04 06:33:07;;;;;;;4.43;4.03;;;16.60;99.90;;;;;;5083193;28;20032;-35
2023/09/04 06:35:34;;;;;;;4.22;3.85;;;16.60;99.90;;;;;;5084787;28;20016;-35
2023/09/04 06:37:59;;;;;;;4.75;4.30;;;16.60;99.90;;;;;;5084753;28;20348;-36
2023/09/04 06:40:25;;;;;;;5.13;3.97;;;16.70;99.90;;;;;;5084344;28;20023;-36
2023/09/04 06:42:54;;;;;;;4.50;4.10;;;16.70;99.90;;;;;;5084714;28;20097;-35
2023/09/04 06:45:20;;;;;;;4.20;3.80;;;16.70;99.90;;;;;;5084230;28;20456;-35
2023/09/04 06:47:46;;;;;;;4.05;3.67;;;16.70;99.90;;;;;;5083725;28;20020;-35
2023/09/04 06:50:11;;;;;;;4.50;4.10;;;16.80;99.90;;;;;;5084105;28;20028;-37
2023/09/04 06:52:37;;;;;;;4.40;4.00;;;16.80;99.90;;;;;;5085992;28;20032;-36
2023/09/04 06:55:04;;;;;;;5.00;4.50;;;16.80;99.90;;;;;;5088330;28;20104;-35
2023/09/04 06:57:29;;;;;;;4.85;4.35;;;16.90;99.90;;;;;;5088084;28;20028;-35
2023/09/04 06:59:56;;;;;;;5.70;4.22;;;16.90;99.90;;;;;;5087816;28;20048;-35
2023/09/04 07:02:22;;;;;;;4.85;4.40;;;16.90;99.90;;;;;;5087690;28;20017;-36
2023/09/04 07:04:48;;;;;;;4.95;4.20;;;16.90;99.90;;;;;;5088697;28;20085;-36
2023/09/04 07:07:13;;;;;;;5.28;4.78;;;17.00;99.90;;;;;;5087309;28;20024;-35
2023/09/04 07:09:39;;;;;;;5.28;4.78;;;17.00;99.90;;;;;;5088765;28;20553;-36
2023/09/04 07:12:05;;;;;;;5.13;4.63;;;17.00;99.90;;;;;;5087199;28;20486;-33
2023/09/04 07:14:32;;;;;;;5.57;5.07;;;17.10;99.90;;;;;;5087389;28;20035;-35
2023/09/04 07:16:58;;;;;;;4.30;3.90;;;17.10;99.90;;;;;;5087344;28;20044;-36
2023/09/04 07:19:23;;;;;;;3.80;3.40;;;17.20;99.90;;;;;;5088247;28;20068;-37
2023/09/04 07:21:49;;;;;;;3.75;3.42;;;17.20;99.90;;;;;;5087422;28;20073;-36
2023/09/04 07:24:15;;;;;;;3.97;3.58;;;17.30;99.90;;;;;;5087681;28;20020;-35
2023/09/04 07:26:43;;;;;;;4.93;3.58;;;17.30;99.90;;;;;;5088443;28;20203;-36
2023/09/04 07:29:09;;;;;;;4.25;3.85;;;17.40;99.90;;;;;;5086988;28;20095;-35
2023/09/04 07:31:34;;;;;;;3.90;3.60;;;17.40;99.90;;;;;;5087864;28;20555;-34
2023/09/04 07:34:07;;;;;;;4.05;3.67;;;17.40;99.90;;;;;;5083430;28;20050;-35
2023/09/04 07:36:32;;;;;;;4.35;4.00;;;17.50;99.90;;;;;;5087087;28;20494;-36
2023/09/04 07:39:01;;;;;;;4.65;4.22;;;17.50;99.90;;;;;;5087059;28;20012;-35
2023/09/04 07:41:27;;;;;;;3.85;3.55;;;17.60;99.90;;;;;;5087288;28;20023;-35
2023/09/04 07:43:52;;;;;;;4.35;3.95;;;17.70;99.90;;;;;;5086318;28;20036;-35
2023/09/04 07:46:18;;;;;;;3.92;3.63;;;17.70;99.90;;;;;;5086762;28;20019;-35
2023/09/04 07:48:44;;;;;;;4.30;3.90;;;17.80;99.90;;;;;;5086732;28;20135;-36
2023/09/04 07:51:09;;;;;;;4.75;3.72;;;17.80;99.90;;;;;;5086194;28;20126;-36
2023/09/04 07:53:35;;;;;;;3.42;3.13;;;17.90;99.90;;;;;;5086823;28;20039;-38
2023/09/04 07:56:10;;;;;;;3.83;3.53;;;17.90;99.90;;;;;;5086276;28;20031;-35
2023/09/04 07:58:38;;;;;;;5.32;3.53;;;17.90;99.90;;;;;;5087824;28;20039;-38
2023/09/04 08:01:04;;;;;;;3.58;3.28;;;18.00;99.90;;;;;;5087045;28;20056;-35
2023/09/04 08:03:29;;;;;;;4.45;3.55;;;18.10;99.90;;;;;;5086519;28;20409;-36
2023/09/04 08:05:55;;;;;;;3.38;3.05;;;18.10;99.90;;;;;;5086318;28;20027;-37
2023/09/04 08:08:20;;;;;;;4.35;4.05;;;18.10;99.90;;;;;;5086095;28;20020;-37
2023/09/04 08:10:49;;;;;;;3.80;3.50;;;18.20;99.90;;;;;;5086182;28;20024;-36
2023/09/04 08:13:17;;;;;;;3.47;3.17;;;18.30;99.90;;;;;;5085864;28;20815;-36
2023/09/04 08:15:44;;;;;;;3.20;2.92;;;18.40;99.90;;;;;;5086739;28;20028;-36
2023/09/04 08:18:11;;;;;;;3.10;2.90;;;18.40;99.90;;;;;;5085140;28;20020;-36
2023/09/04 08:20:39;;;;;;;3.50;3.20;;;18.40;99.90;;;;;;5086887;28;20070;-35
2023/09/04 08:23:06;;;;;;;3.30;3.00;;;18.50;99.90;;;;;;5086586;28;20117;-37
2023/09/04 08:25:32;;;;;;;3.17;2.97;;;18.60;99.90;;;;;;5085618;28;20031;-36
2023/09/04 08:28:01;;;;;;;4.55;3.13;;;18.70;99.90;;;;;;5086302;28;20032;-36
2023/09/04 08:30:26;;;;;;;3.50;3.20;;;18.70;99.90;;;;;;5086409;28;20063;-37
2023/09/04 08:32:52;;;;;;;3.13;2.90;;;18.80;99.90;;;;;;5085848;28;20135;-38
2023/09/04 08:35:18;;;;;;;3.88;2.80;;;18.80;99.90;;;;;;5085653;28;20536;-41
2023/09/04 08:37:43;;;;;;;3.30;3.00;;;18.90;99.90;;;;;;5086780;28;20035;-36
2023/09/04 08:40:09;;;;;;;3.95;3.53;;;18.90;99.90;;;;;;5085093;28;20542;-37
2023/09/04 08:42:38;;;;;;;3.75;3.42;;;18.90;99.90;;;;;;5086323;28;20051;-37
2023/09/04 08:45:09;;;;;;;3.50;3.20;;;19.00;99.90;;;;;;5085736;28;20031;-37
2023/09/04 08:47:41;;;;;;;3.38;2.90;;;19.10;99.90;;;;;;5085828;28;20070;-37
2023/09/04 08:50:08;;;;;;;3.28;2.97;;;19.10;99.90;;;;;;5085214;28;20056;-36
2023/09/04 08:52:37;;;;;;;2.92;2.70;;;19.20;99.90;;;;;;5085832;28;20108;-35
2023/09/04 08:55:03;;;;;;;2.95;2.67;;;19.20;99.90;;;;;;5085314;28;20149;-35
2023/09/04 08:57:30;;;;;;;2.97;2.67;;;19.30;99.90;;;;;;5085789;28;20040;-36
2023/09/04 08:59:55;;;;;;;3.10;2.90;;;19.30;99.90;;;;;;5085650;28;20046;-36
2023/09/04 09:02:21;;;;;;;3.97;2.97;;;19.30;99.90;;;;;;5085463;28;20016;-36
2023/09/04 09:04:52;;;;;;;2.85;2.65;;;19.40;99.90;;;;;;5085722;28;20024;-36
2023/09/04 09:07:20;;;;;;;3.05;2.60;;;19.40;99.90;;;;;;5085002;28;20031;-38
2023/09/04 09:09:50;;;;;;;2.42;2.22;;;19.40;99.90;;;;;;5085876;28;20088;-37
2023/09/04 09:12:18;;;;;;;2.42;2.22;;;19.50;99.90;;;;;;5085077;28;20803;-37
2023/09/04 09:14:44;;;;;;;3.47;2.00;;;19.50;99.90;;;;;;5085271;28;20037;-36
2023/09/04 09:17:13;;;;;;;2.65;2.33;;;19.60;99.90;;;;;;5084349;28;20120;-34
2023/09/04 09:19:38;;;;;;;2.60;2.30;;;19.60;99.90;;;;;;5086150;28;20050;-35
2023/09/04 09:22:17;;;;;;;2.30;2.10;;;19.70;99.90;;;;;;5084269;28;20076;-36
2023/09/04 09:25:01;;;;;;;2.50;2.30;;;19.70;99.90;;;;;;5086128;28;20032;-36
2023/09/04 09:27:30;;;;;;;2.72;2.35;;;19.80;99.90;;;;;;5083401;28;20032;-36
2023/09/04 09:29:59;;;;;;;2.45;2.05;;;19.90;99.90;;;;;;5085288;28;20119;-36
2023/09/04 09:32:32;;;;;;;2.53;2.33;;;19.90;99.90;;;;;;5085209;28;20065;-35
2023/09/04 09:35:00;;;;;;;2.67;2.10;;;20.00;99.90;;;;;;5084060;28;20035;-37
2023/09/04 09:37:30;;;;;;;4.30;2.40;;;20.00;99.90;;;;;;5084696;28;20036;-36
2023/09/04 09:39:55;;;;;;;2.17;1.98;;;20.10;99.90;;;;;;5084578;28;20028;-37
2023/09/04 09:42:21;;;;;;;2.60;2.05;;;20.30;99.90;;;;;;5083837;28;20043;-35
2023/09/04 09:44:47;;;;;;;2.15;1.95;;;20.30;99.90;;;;;;5085473;28;20032;-35
2023/09/04 09:47:13;;;;;;;2.50;2.20;;;20.40;99.90;;;;;;5084868;28;20028;-36
2023/09/04 09:49:43;;;;;;;2.17;1.98;;;20.50;99.90;;;;;;5084393;28;20024;-35
2023/09/04 09:52:10;;;;;;;4.07;2.25;;;20.50;99.90;;;;;;5083886;28;20035;-35
2023/09/04 09:54:37;;;;;;;2.10;1.90;;;20.50;99.90;;;;;;5084525;28;20114;-36
2023/09/04 09:57:11;;;;;;;2.30;1.90;;;20.60;99.90;;;;;;5083316;28;20053;-37
2023/09/04 09:59:38;;;;;;;2.30;2.10;;;20.60;99.90;;;;;;5084616;28;20474;-35
2023/09/04 10:02:05;;;;;;;2.35;2.15;;;20.70;99.90;;;;;;5084244;28;20055;-38
2023/09/04 10:04:33;;;;;;;2.17;1.98;;;20.70;99.90;;;;;;5084186;28;20130;-36
2023/09/04 10:07:01;;;;;;;2.58;2.20;;;20.80;99.90;;;;;;5084306;28;20144;-35
2023/09/04 10:09:31;;;;;;;2.75;2.20;;;20.90;99.90;;;;;;5084712;28;20020;-33
2023/09/04 10:12:26;;;;;;;2.17;1.95;;;21.00;99.90;;;;;;5083668;28;20038;-35
2023/09/04 10:14:56;;;;;;;2.10;1.90;;;21.00;99.90;;;;;;5072111;28;20044;-35
2023/09/04 10:17:57;;;;;;;1.65;1.52;;;21.00;99.90;;;;;;5083583;28;20027;-36
2023/09/04 10:20:25;;;;;;;2.10;1.83;;;21.00;99.90;;;;;;5076260;28;20106;-35
2023/09/04 10:23:05;;;;;;;2.05;1.70;;;21.00;99.90;;;;;;5083945;28;20024;-36
2023/09/04 10:25:53;;;;;;;1.70;1.60;;;21.00;99.90;;;;;;5083990;28;20040;-37
2023/09/04 10:28:29;;;;;;;1.80;1.70;;;21.10;99.90;;;;;;5083039;28;20019;-36
2023/09/04 10:30:59;;;;;;;1.90;1.80;;;21.20;99.90;;;;;;5083897;28;20032;-36
2023/09/04 10:33:25;;;;;;;2.47;1.80;;;21.20;99.90;;;;;;5084040;28;20036;-35
2023/09/04 10:35:53;;;;;;;2.10;1.80;;;21.30;99.90;;;;;;5084386;28;20458;-38
2023/09/04 10:38:22;;;;;;;2.08;1.88;;;21.40;99.90;;;;;;5082715;28;20024;-35
2023/09/04 10:40:48;;;;;;;2.33;2.10;;;21.40;99.90;;;;;;5084127;28;20024;-36
2023/09/04 10:43:14;;;;;;;2.28;1.67;;;21.50;99.90;;;;;;5083709;28;20628;-36
2023/09/04 10:45:40;;;;;;;2.00;1.80;;;21.50;99.90;;;;;;5084043;28;20021;-35
2023/09/04 10:48:08;;;;;;;2.00;1.90;;;21.60;99.90;;;;;;5083500;28;20024;-36
2023/09/04 10:50:39;;;;;;;2.55;2.00;;;21.60;99.90;;;;;;5083978;28;20495;-36
2023/09/04 10:53:07;;;;;;;1.90;1.60;;;21.70;99.90;;;;;;5083099;28;20468;-34
2023/09/04 10:55:37;;;;;;;2.10;1.90;;;21.80;99.90;;;;;;5084243;28;20019;-35
2023/09/04 10:58:04;;;;;;;1.75;1.65;;;21.90;99.90;;;;;;5083922;28;20209;-34
2023/09/04 11:00:43;;;;;;;1.95;1.73;;;21.90;99.90;;;;;;5083122;28;20051;-36
2023/09/04 11:03:19;;;;;;;2.00;1.73;;;21.90;99.90;;;;;;5083050;28;20028;-35
2023/09/04 11:06:04;;;;;;;1.67;1.55;;;21.90;99.90;;;;;;5083820;28;20106;-36
2023/09/04 11:08:35;;;;;;;1.63;1.52;;;22.00;99.90;;;;;;5084531;28;20241;-37
2023/09/04 11:11:05;;;;;;;1.92;1.73;;;22.00;99.90;;;;;;5083695;28;20030;-36
2023/09/04 11:13:38;;;;;;;2.28;1.90;;;22.10;99.90;;;;;;5083989;28;20040;-36
2023/09/04 11:16:08;;;;;;;1.60;1.50;;;22.10;99.90;;;;;;5083318;28;20090;-35
2023/09/04 11:18:42;;;;;;;1.95;1.63;;;22.10;99.90;;;;;;5084137;28;20035;-35
2023/09/04 11:21:10;;;;;;;3.65;1.90;;;22.10;99.90;;;;;;5083007;28;20051;-34
2023/09/04 11:23:36;;;;;;;2.00;1.80;;;22.10;99.90;;;;;;5083901;28;20494;-35
2023/09/04 11:26:02;;;;;;;2.28;1.90;;;22.10;99.90;;;;;;5083536;28;20024;-35
2023/09/04 11:28:28;;;;;;;2.85;1.63;;;22.10;99.90;;;;;;5083057;28;20035;-35
2023/09/04 11:31:00;;;;;;;2.15;1.90;;;22.20;99.90;;;;;;5083864;28;20016;-36
2023/09/04 11:33:31;;;;;;;2.05;1.85;;;22.20;99.90;;;;;;5084674;28;20040;-36
2023/09/04 11:36:04;;;;;;;2.80;1.70;;;22.20;99.90;;;;;;5082953;28;20459;-36
2023/09/04 11:38:32;;;;;;;2.00;1.73;;;22.30;99.90;;;;;;5084011;28;20274;-36
2023/09/04 11:40:58;;;;;;;1.60;1.50;;;22.30;99.90;;;;;;5086886;28;20401;-37
2023/09/04 11:43:25;;;;;;;3.50;2.40;;;22.40;99.90;;;;;;5086990;28;20020;-36
2023/09/04 11:46:03;;;;;;;2.17;1.80;;;22.40;99.90;;;;;;5087451;28;20965;-34
2023/09/04 11:48:29;;;;;;;2.95;1.80;;;22.50;99.90;;;;;;5087523;28;20122;-36
2023/09/04 11:50:54;;;;;;;3.30;2.10;;;22.60;99.90;;;;;;5086909;28;20463;-37
2023/09/04 11:53:22;;;;;;;3.08;2.00;;;22.60;99.90;;;;;;5086000;28;20352;-36
2023/09/04 11:55:50;;;;;;;2.50;2.20;;;22.70;99.90;;;;;;5086802;28;20016;-36
2023/09/04 11:58:16;;;;;;;1.83;1.73;;;22.70;99.90;;;;;;5086706;28;20027;-37
2023/09/04 12:00:45;;;;;;;2.05;1.85;;;22.70;99.90;;;;;;5086662;28;20052;-37
2023/09/04 12:03:14;;;;;;;2.33;1.77;;;22.70;99.90;;;;;;5085653;28;20474;-36
2023/09/04 12:05:41;;;;;;;1.77;1.67;;;22.80;99.90;;;;;;5086790;28;20115;-36
2023/09/04 12:08:07;;;;;;;1.92;1.77;;;22.90;99.90;;;;;;5086921;28;20020;-36
2023/09/04 12:10:34;;;;;;;2.25;1.85;;;22.90;99.90;;;;;;5086420;28;20073;-35
2023/09/04 12:13:01;;;;;;;2.63;2.42;;;22.90;99.90;;;;;;5086081;28;20652;-36
2023/09/04 12:15:27;;;;;;;2.92;2.63;;;22.90;99.90;;;;;;5086935;28;20028;-43
2023/09/04 12:17:52;;;;;;;2.60;2.20;;;22.90;99.90;;;;;;5085247;28;20399;-35
2023/09/04 12:20:18;;;;;;;2.10;1.90;;;22.90;99.90;;;;;;5086322;28;20447;-36
2023/09/04 12:22:54;;;;;;;2.22;1.95;;;23.00;99.90;;;;;;5086975;28;20024;-36
2023/09/04 12:25:25;;;;;;;2.20;1.98;;;23.00;99.90;;;;;;5085571;28;20259;-37
2023/09/04 12:27:51;;;;;;;1.90;1.80;;;23.00;99.90;;;;;;5086653;28;20047;-35
2023/09/04 12:30:17;;;;;;;1.77;1.67;;;23.00;99.90;;;;;;5085106;28;20032;-35
2023/09/04 12:32:42;;;;;;;1.92;1.83;;;23.10;99.90;;;;;;5086292;28;20035;-36
2023/09/04 12:35:08;;;;;;;1.88;1.77;;;23.10;99.90;;;;;;5086151;28;20040;-34
2023/09/04 12:37:35;;;;;;;2.30;2.10;;;23.10;99.90;;;;;;5085841;28;20064;-36
2023/09/04 12:40:02;;;;;;;2.30;2.10;;;23.20;99.90;;;;;;5086013;28;20024;-36
2023/09/04 12:42:27;;;;;;;2.05;1.95;;;23.30;99.90;;;;;;5085916;28;20058;-36
2023/09/04 12:44:53;;;;;;;2.38;1.80;;;23.30;99.90;;;;;;5085578;28;20059;-35
2023/09/04 12:47:22;;;;;;;2.83;1.90;;;23.30;99.90;;;;;;5085565;28;20355;-35
2023/09/04 12:49:48;;;;;;;2.75;2.20;;;23.30;99.90;;;;;;5085576;28;20033;-36
2023/09/04 12:52:14;;;;;;;2.80;2.60;;;23.30;99.90;;;;;;5084778;28;20032;-36